Time;durP1;ratioP1;P1;durP2;ratioP2;P2;SDS_P1;SDS_P2;PMS_P1;PMS_P2;Temp;Humidity;BMP_temperature;BMP_pressure;BME280_temperature;BME280_humidity;BME280_pressure;Samples;Min_cycle;Max_cycle;Signal;HPM_P1;HPM_P2
2021/03/27 00:01:23;;;;;;;13.57;6.75;;;;;;;;;;5025563;28;20057;-66
2021/03/27 00:03:52;;;;;;;14.77;6.78;;;;;;;;;;5023365;28;20534;-64
2021/03/27 00:06:23;;;;;;;18.30;7.82;;;;;;;;;;5026795;28;20057;-66
2021/03/27 00:08:51;;;;;;;13.50;7.30;;;;;;;;;;5023955;28;20107;-65
2021/03/27 00:11:22;;;;;;;15.55;7.90;;;;;;;;;;5026642;28;20053;-68
2021/03/27 00:14:02;;;;;;;22.35;8.25;;;;;;;;;;5025241;28;20449;-68
2021/03/27 00:16:32;;;;;;;17.33;7.90;;;;;;;;;;5014755;28;20067;-67
2021/03/27 00:19:02;;;;;;;15.00;7.68;;;;;;;;;;5023363;28;20182;-66
2021/03/27 00:21:32;;;;;;;14.85;7.97;;;;;;;;;;5026635;28;20135;-67
2021/03/27 00:24:01;;;;;;;17.92;7.57;;;;;;;;;;5024722;28;20084;-66
2021/03/27 00:26:30;;;;;;;13.52;6.72;;;;;;;;;;5022401;28;20164;-64
2021/03/27 00:29:01;;;;;;;17.38;7.47;;;;;;;;;;5024645;28;20042;-67
2021/03/27 00:31:29;;;;;;;18.85;7.05;;;;;;;;;;5026092;28;20591;-64
2021/03/27 00:33:59;;;;;;;15.18;7.72;;;;;;;;;;5025204;28;20294;-66
2021/03/27 00:36:28;;;;;;;13.45;4.93;;;;;;;;;;5025178;28;20076;-65
2021/03/27 00:39:01;;;;;;;10.32;4.60;;;;;;;;;;5024982;28;20454;-67
2021/03/27 00:41:34;;;;;;;12.82;4.60;;;;;;;;;;5025770;28;20107;-67
2021/03/27 00:44:05;;;;;;;8.40;4.93;;;;;;;;;;5026926;28;20053;-67
2021/03/27 00:46:32;;;;;;;11.88;4.57;;;;;;;;;;5025792;28;20049;-66
2021/03/27 00:49:01;;;;;;;9.32;4.70;;;;;;;;;;5025037;28;20053;-65
2021/03/27 00:51:29;;;;;;;11.90;4.95;;;;;;;;;;5026007;28;20165;-64
2021/03/27 00:54:00;;;;;;;12.50;5.60;;;;;;;;;;5025063;28;20426;-64
2021/03/27 00:56:28;;;;;;;12.77;4.78;;;;;;;;;;5025297;28;20059;-68
2021/03/27 00:58:58;;;;;;;10.88;4.20;;;;;;;;;;5024745;28;20156;-65
2021/03/27 01:01:29;;;;;;;12.40;4.95;;;;;;;;;;5023887;28;20374;-65
2021/03/27 01:03:59;;;;;;;9.32;4.53;;;;;;;;;;5025124;28;20144;-64
2021/03/27 01:06:29;;;;;;;11.18;4.10;;;;;;;;;;5025450;28;20045;-69
2021/03/27 01:08:58;;;;;;;14.25;4.50;;;;;;;;;;5024389;28;20553;-67
2021/03/27 01:11:27;;;;;;;8.55;4.32;;;;;;;;;;5019080;28;20049;-64
2021/03/27 01:13:57;;;;;;;10.70;5.97;;;;;;;;;;5025035;28;20456;-66
2021/03/27 01:16:25;;;;;;;9.82;5.43;;;;;;;;;;5024196;28;20570;-66
2021/03/27 01:18:56;;;;;;;8.98;4.88;;;;;;;;;;5005303;28;20085;-66
2021/03/27 01:21:25;;;;;;;9.07;4.78;;;;;;;;;;5019115;28;20404;-65
2021/03/27 01:23:55;;;;;;;10.90;4.65;;;;;;;;;;5024884;28;20052;-66
2021/03/27 01:26:24;;;;;;;10.63;4.80;;;;;;;;;;5021260;28;20065;-65
2021/03/27 01:28:54;;;;;;;8.60;4.13;;;;;;;;;;5023850;28;20065;-65
2021/03/27 01:31:28;;;;;;;8.82;4.50;;;;;;;;;;5024493;28;20164;-66
2021/03/27 01:33:58;;;;;;;8.02;4.30;;;;;;;;;;5034788;28;20061;-66
2021/03/27 01:36:30;;;;;;;13.27;4.32;;;;;;;;;;5034351;28;20103;-67
2021/03/27 01:38:58;;;;;;;8.45;4.10;;;;;;;;;;5023387;28;20041;-65
2021/03/27 01:41:32;;;;;;;9.38;4.03;;;;;;;;;;5025017;28;20140;-66
2021/03/27 01:44:08;;;;;;;8.82;3.80;;;;;;;;;;5024527;28;20049;-65
2021/03/27 01:46:58;;;;;;;11.30;3.80;;;;;;;;;;5024632;28;20251;-69
2021/03/27 01:49:33;;;;;;;8.70;3.65;;;;;;;;;;5024872;28;20056;-66
2021/03/27 01:52:14;;;;;;;7.68;3.97;;;;;;;;;;5023927;28;20091;-64
2021/03/27 01:54:49;;;;;;;7.90;3.60;;;;;;;;;;5023528;28;20145;-63
2021/03/27 01:57:22;;;;;;;4.60;3.20;;;;;;;;;;5023726;28;20068;-65
2021/03/27 01:59:51;;;;;;;7.25;3.40;;;;;;;;;;5024283;28;20129;-68
2021/03/27 02:02:21;;;;;;;8.95;3.70;;;;;;;;;;5048515;22;20467;-68
2021/03/27 02:04:52;;;;;;;10.77;3.85;;;;;;;;;;5078707;28;20052;-68
2021/03/27 02:07:22;;;;;;;7.18;3.85;;;;;;;;;;5081507;28;20845;-69
2021/03/27 02:09:55;;;;;;;7.20;3.45;;;;;;;;;;5084026;28;20109;-68
2021/03/27 02:12:27;;;;;;;5.38;3.55;;;;;;;;;;5083313;28;20748;-68
2021/03/27 02:14:56;;;;;;;4.60;2.95;;;;;;;;;;5084445;28;20079;-68
2021/03/27 02:17:32;;;;;;;9.70;4.07;;;;;;;;;;5083149;28;20069;-68
2021/03/27 02:20:16;;;;;;;7.22;3.42;;;;;;;;;;5085476;28;20529;-68
2021/03/27 02:22:47;;;;;;;12.00;3.50;;;;;;;;;;5081454;28;20079;-68
2021/03/27 02:25:29;;;;;;;8.73;3.85;;;;;;;;;;5082300;28;20504;-68
2021/03/27 02:28:01;;;;;;;7.80;3.15;;;;;;;;;;5083169;28;20125;-68
2021/03/27 02:30:32;;;;;;;10.85;3.63;;;;;;;;;;5084291;28;20135;-68
2021/03/27 02:33:14;;;;;;;14.45;4.20;;;;;;;;;;5083489;28;20081;-68
2021/03/27 02:36:04;;;;;;;17.33;3.80;;;;;;;;;;5090689;28;20048;-68
2021/03/27 02:38:35;;;;;;;19.80;3.75;;;;;;;;;;5083241;28;20552;-68
2021/03/27 02:41:08;;;;;;;9.52;3.40;;;;;;;;;;5081568;28;20143;-68
2021/03/27 02:43:37;;;;;;;8.68;3.85;;;;;;;;;;5084133;28;20139;-68
2021/03/27 02:46:08;;;;;;;17.65;3.90;;;;;;;;;;5082925;28;20048;-67
2021/03/27 02:48:50;;;;;;;20.42;4.80;;;;;;;;;;5075212;28;20147;-68
2021/03/27 02:51:22;;;;;;;12.57;3.70;;;;;;;;;;5081520;28;20419;-68
2021/03/27 02:53:56;;;;;;;10.98;3.45;;;;;;;;;;5084183;28;20516;-68
2021/03/27 02:56:29;;;;;;;12.27;4.18;;;;;;;;;;5083896;28;20079;-69
2021/03/27 02:59:15;;;;;;;12.82;3.88;;;;;;;;;;5083081;28;21297;-68
2021/03/27 03:01:46;;;;;;;10.43;3.45;;;;;;;;;;5064222;28;20555;-68
2021/03/27 03:04:16;;;;;;;12.65;3.53;;;;;;;;;;5079111;28;20511;-69
2021/03/27 03:06:48;;;;;;;8.95;3.53;;;;;;;;;;5081133;28;20135;-68
2021/03/27 03:09:19;;;;;;;9.18;3.53;;;;;;;;;;5083827;28;20060;-68
2021/03/27 03:11:55;;;;;;;10.23;3.80;;;;;;;;;;5084006;28;20047;-68
2021/03/27 03:14:26;;;;;;;6.07;3.72;;;;;;;;;;5078471;28;20052;-68
2021/03/27 03:17:00;;;;;;;31.95;5.13;;;;;;;;;;5082387;28;20554;-68
2021/03/27 03:19:44;;;;;;;30.17;5.75;;;;;;;;;;5042106;28;20052;-69
2021/03/27 03:22:14;;;;;;;20.05;4.43;;;;;;;;;;5082385;28;20048;-68
2021/03/27 03:24:42;;;;;;;13.43;4.30;;;;;;;;;;5083886;28;20058;-68
2021/03/27 03:27:14;;;;;;;22.08;5.43;;;;;;;;;;5082609;28;20051;-69
2021/03/27 03:29:48;;;;;;;15.95;4.32;;;;;;;;;;5083661;28;20044;-69
2021/03/27 03:32:23;;;;;;;26.60;5.10;;;;;;;;;;5081059;28;20576;-69
2021/03/27 03:34:57;;;;;;;23.67;4.25;;;;;;;;;;5083420;28;20124;-68
2021/03/27 03:37:29;;;;;;;13.52;3.80;;;;;;;;;;5079549;28;20127;-68
2021/03/27 03:40:19;;;;;;;20.10;4.60;;;;;;;;;;5085850;28;20570;-68
2021/03/27 03:43:04;;;;;;;13.00;4.45;;;;;;;;;;5082344;28;20048;-69
2021/03/27 03:45:41;;;;;;;36.65;6.03;;;;;;;;;;5078375;28;20052;-69
2021/03/27 03:48:15;;;;;;;24.88;4.13;;;;;;;;;;5085518;28;20044;-69
2021/03/27 03:50:46;;;;;;;11.02;4.43;;;;;;;;;;5086341;28;20051;-69
2021/03/27 03:53:19;;;;;;;11.23;4.30;;;;;;;;;;5081383;28;20052;-69
2021/03/27 03:55:57;;;;;;;46.97;7.75;;;;;;;;;;5086735;28;20040;-68
2021/03/27 03:58:33;;;;;;;22.42;5.68;;;;;;;;;;5086724;28;20143;-68
2021/03/27 04:01:04;;;;;;;25.67;5.30;;;;;;;;;;5084831;28;20071;-68
2021/03/27 04:03:35;;;;;;;17.20;4.68;;;;;;;;;;5087151;28;20055;-68
2021/03/27 04:06:05;;;;;;;22.92;5.07;;;;;;;;;;5086114;28;20187;-68
2021/03/27 04:08:37;;;;;;;27.70;5.43;;;;;;;;;;5084319;28;20483;-68
2021/03/27 04:11:24;;;;;;;15.75;4.60;;;;;;;;;;5085325;28;20048;-68
2021/03/27 04:13:53;;;;;;;16.38;4.50;;;;;;;;;;5086128;28;20052;-68
2021/03/27 04:16:22;;;;;;;20.67;6.75;;;;;;;;;;5086163;28;20097;-68
2021/03/27 04:18:55;;;;;;;16.98;5.57;;;;;;;;;;5084464;28;20131;-68
2021/03/27 04:21:24;;;;;;;19.52;5.15;;;;;;;;;;5086436;28;20056;-68
2021/03/27 04:23:56;;;;;;;12.48;4.35;;;;;;;;;;5086282;28;20057;-68
2021/03/27 04:26:27;;;;;;;14.45;5.50;;;;;;;;;;5084879;28;20051;-69
2021/03/27 04:29:12;;;;;;;13.48;5.28;;;;;;;;;;5085905;28;20520;-68
2021/03/27 04:31:43;;;;;;;33.05;6.20;;;;;;;;;;5072107;28;20481;-68
2021/03/27 04:34:14;;;;;;;18.30;5.53;;;;;;;;;;5086590;28;20128;-68
2021/03/27 04:36:46;;;;;;;22.92;6.03;;;;;;;;;;5085362;28;20115;-69
2021/03/27 04:39:17;;;;;;;35.70;6.63;;;;;;;;;;5085573;28;20048;-69
2021/03/27 04:41:48;;;;;;;26.65;6.30;;;;;;;;;;5085357;28;20141;-68
2021/03/27 04:44:21;;;;;;;25.15;6.15;;;;;;;;;;5086690;28;20503;-68
2021/03/27 04:46:53;;;;;;;24.35;6.20;;;;;;;;;;5085317;28;20123;-68
2021/03/27 04:49:25;;;;;;;16.30;5.78;;;;;;;;;;5085646;28;20167;-68
2021/03/27 04:52:01;;;;;;;27.05;7.65;;;;;;;;;;5085971;28;20052;-68
2021/03/27 04:54:39;;;;;;;22.98;7.13;;;;;;;;;;5085495;28;20105;-68
2021/03/27 04:57:11;;;;;;;21.67;6.13;;;;;;;;;;5085217;28;20452;-69
2021/03/27 04:59:48;;;;;;;19.50;6.18;;;;;;;;;;5084922;28;20135;-68
2021/03/27 05:02:16;;;;;;;11.75;6.97;;;;;;;;;;5084296;28;20163;-69
2021/03/27 05:04:56;;;;;;;15.00;6.50;;;;;;;;;;5086243;28;20105;-68
2021/03/27 05:07:28;;;;;;;17.85;6.50;;;;;;;;;;5084379;28;20062;-69
2021/03/27 05:10:05;;;;;;;10.25;5.95;;;;;;;;;;5085499;28;20052;-68
2021/03/27 05:12:43;;;;;;;13.93;6.18;;;;;;;;;;5082718;28;20498;-68
2021/03/27 05:15:13;;;;;;;13.85;7.47;;;;;;;;;;5085582;28;20136;-69
2021/03/27 05:17:55;;;;;;;13.73;7.15;;;;;;;;;;5084955;28;20101;-69
2021/03/27 05:20:25;;;;;;;13.38;6.95;;;;;;;;;;5084210;28;20050;-68
2021/03/27 05:22:57;;;;;;;18.08;7.13;;;;;;;;;;5080205;28;20802;-68
2021/03/27 05:25:31;;;;;;;15.32;6.53;;;;;;;;;;5071237;28;20080;-68
2021/03/27 05:28:09;;;;;;;13.82;7.05;;;;;;;;;;5084342;28;20135;-67
2021/03/27 05:30:44;;;;;;;15.10;6.53;;;;;;;;;;5075151;28;20510;-68
2021/03/27 05:33:11;;;;;;;;;;;;;;;;;;5085923;28;20074;-68
2021/03/27 05:35:41;;;;;;;16.90;6.70;;;;;;;;;;5084302;28;19920;-68
2021/03/27 05:38:13;;;;;;;13.77;7.32;;;;;;;;;;5084422;28;20554;-68
2021/03/27 05:41:14;;;;;;;10.63;6.30;;;;;;;;;;5083440;28;20044;-68
2021/03/27 05:44:02;;;;;;;13.73;7.70;;;;;;;;;;5081202;28;20075;-68
2021/03/27 05:46:44;;;;;;;15.23;7.68;;;;;;;;;;5084925;28;20101;-68
2021/03/27 05:49:37;;;;;;;18.55;7.50;;;;;;;;;;5079190;28;20139;-69
2021/03/27 05:52:21;;;;;;;12.77;7.07;;;;;;;;;;5081420;28;20151;-69
2021/03/27 05:55:19;;;;;;;18.08;6.20;;;;;;;;;;5079625;28;20491;-69
2021/03/27 05:58:06;;;;;;;16.90;7.68;;;;;;;;;;5001195;28;20628;-69
2021/03/27 06:00:37;;;;;;;15.80;6.80;;;;;;;;;;5076122;28;20048;-69
2021/03/27 06:03:25;;;;;;;19.17;7.05;;;;;;;;;;5084321;28;20459;-69
2021/03/27 06:06:07;;;;;;;12.88;6.15;;;;;;;;;;5084188;28;20044;-70
2021/03/27 06:08:40;;;;;;;17.05;7.00;;;;;;;;;;5067925;28;20044;-69
2021/03/27 06:11:16;;;;;;;13.23;6.38;;;;;;;;;;5082319;28;20550;-69
2021/03/27 06:13:55;;;;;;;9.65;5.65;;;;;;;;;;5084637;28;20044;-70
2021/03/27 06:16:37;;;;;;;14.20;6.22;;;;;;;;;;5088720;28;20091;-69
2021/03/27 06:19:17;;;;;;;10.13;4.47;;;;;;;;;;5080625;28;20048;-68
2021/03/27 06:22:07;;;;;;;9.63;5.22;;;;;;;;;;5075966;28;20063;-68
2021/03/27 06:24:47;;;;;;;8.57;4.82;;;;;;;;;;5080243;28;20487;-68
2021/03/27 06:27:28;;;;;;;7.35;4.20;;;;;;;;;;5082862;28;20133;-68
2021/03/27 06:30:16;;;;;;;9.88;4.40;;;;;;;;;;5070265;28;20067;-68
2021/03/27 06:32:58;;;;;;;9.40;3.92;;;;;;;;;;5082782;28;20583;-68
2021/03/27 06:35:34;;;;;;;8.10;3.58;;;;;;;;;;5035277;28;20407;-68
2021/03/27 06:38:20;;;;;;;7.10;3.42;;;;;;;;;;5083170;28;20121;-68
2021/03/27 06:41:05;;;;;;;6.93;3.15;;;;;;;;;;5084382;28;20048;-69
2021/03/27 06:43:33;;;;;;;;;;;;;;;;;;5083129;28;20044;-69
2021/03/27 06:46:28;;;;;;;4.03;2.75;;;;;;;;;;5063675;28;20327;-69
2021/03/27 06:49:14;;;;;;;4.85;2.40;;;;;;;;;;5021578;28;20484;-68
2021/03/27 06:51:52;;;;;;;5.93;3.28;;;;;;;;;;5091204;28;20138;-69
2021/03/27 06:54:29;;;;;;;5.68;2.70;;;;;;;;;;5063921;28;20818;-69
2021/03/27 06:57:04;;;;;;;5.13;2.67;;;;;;;;;;5064005;28;20563;-68
2021/03/27 06:59:50;;;;;;;6.55;2.67;;;;;;;;;;5081742;28;20150;-69
2021/03/27 07:02:35;;;;;;;9.85;2.67;;;;;;;;;;5082942;28;20393;-69
2021/03/27 07:05:02;;;;;;;;;;;;;;;;;;5084141;28;20051;-69
2021/03/27 07:07:36;;;;;;;7.28;2.38;;;;;;;;;;5085187;28;19928;-67
2021/03/27 07:10:14;;;;;;;8.18;2.40;;;;;;;;;;5083505;28;20048;-68
2021/03/27 07:12:54;;;;;;;7.60;3.28;;;;;;;;;;5087131;28;20127;-68
2021/03/27 07:15:37;;;;;;;4.22;2.28;;;;;;;;;;5086214;28;20142;-68
2021/03/27 07:18:14;;;;;;;5.82;2.42;;;;;;;;;;5086050;28;20048;-68
2021/03/27 07:21:04;;;;;;;3.40;2.30;;;;;;;;;;5085591;28;20051;-69
2021/03/27 07:23:54;;;;;;;7.50;2.28;;;;;;;;;;5086687;28;20129;-69
2021/03/27 07:26:42;;;;;;;5.43;2.20;;;;;;;;;;5081002;28;20075;-69
2021/03/27 07:29:31;;;;;;;6.03;2.80;;;;;;;;;;5066748;28;20048;-69
2021/03/27 07:32:12;;;;;;;5.45;3.20;;;;;;;;;;5079050;28;20523;-68
2021/03/27 07:34:48;;;;;;;6.95;2.75;;;;;;;;;;5074097;28;20695;-69
2021/03/27 07:37:31;;;;;;;4.10;2.08;;;;;;;;;;5072659;28;20055;-69
2021/03/27 07:40:13;;;;;;;2.35;1.10;;;;;;;;;;5058684;28;20190;-67
2021/03/27 07:42:47;;;;;;;4.20;0.90;;;;;;;;;;5081202;28;20137;-67
2021/03/27 07:45:22;;;;;;;1.10;0.80;;;;;;;;;;5087450;28;20045;-68
2021/03/27 07:47:58;;;;;;;2.92;0.80;;;;;;;;;;5084245;28;20064;-68
2021/03/27 07:50:47;;;;;;;2.67;0.73;;;;;;;;;;5076545;28;20393;-68
2021/03/27 07:53:29;;;;;;;0.98;0.73;;;;;;;;;;5081983;28;20418;-68
2021/03/27 07:56:13;;;;;;;2.63;0.95;;;;;;;;;;5072262;28;20367;-68
2021/03/27 07:58:55;;;;;;;0.93;0.57;;;;;;;;;;5085680;28;20320;-68
2021/03/27 08:01:32;;;;;;;2.35;0.60;;;;;;;;;;5081870;28;20098;-68
2021/03/27 08:04:32;;;;;;;1.50;0.50;;;;;;;;;;5075659;28;20044;-67
2021/03/27 08:07:04;;;;;;;1.38;0.52;;;;;;;;;;5072082;28;20049;-68
2021/03/27 08:09:49;;;;;;;1.83;0.60;;;;;;;;;;5066857;28;20087;-68
2021/03/27 08:12:30;;;;;;;1.80;0.57;;;;;;;;;;5074346;28;20370;-68
2021/03/27 08:15:07;;;;;;;2.38;0.60;;;;;;;;;;5067276;28;20109;-68
2021/03/27 08:17:38;;;;;;;1.48;0.60;;;;;;;;;;5076195;28;20072;-68
2021/03/27 08:20:22;;;;;;;3.78;0.60;;;;;;;;;;5085973;28;20096;-68
2021/03/27 08:22:58;;;;;;;2.97;1.00;;;;;;;;;;5081551;28;20159;-68
2021/03/27 08:25:32;;;;;;;1.38;0.80;;;;;;;;;;5067206;28;20048;-68
2021/03/27 08:28:20;;;;;;;3.45;0.80;;;;;;;;;;5085199;28;20063;-68
2021/03/27 08:31:10;;;;;;;1.60;0.82;;;;;;;;;;5083689;28;20086;-68
2021/03/27 08:33:46;;;;;;;2.15;0.85;;;;;;;;;;5079845;28;20151;-68
2021/03/27 08:36:32;;;;;;;5.78;1.10;;;;;;;;;;5086080;28;20140;-68
2021/03/27 08:39:13;;;;;;;5.45;1.60;;;;;;;;;;5079673;28;20070;-68
2021/03/27 08:41:55;;;;;;;3.20;0.77;;;;;;;;;;5069854;28;20056;-69
2021/03/27 08:44:41;;;;;;;4.03;0.80;;;;;;;;;;5081600;28;20055;-70
2021/03/27 08:47:17;;;;;;;4.22;0.98;;;;;;;;;;5036212;28;20573;-69
2021/03/27 08:49:58;;;;;;;2.35;0.90;;;;;;;;;;5074923;28;20548;-69
2021/03/27 08:52:38;;;;;;;4.18;1.35;;;;;;;;;;5086331;28;20144;-69
2021/03/27 08:55:20;;;;;;;3.10;0.70;;;;;;;;;;5079424;28;20534;-70
2021/03/27 08:58:12;;;;;;;6.90;1.08;;;;;;;;;;5076374;28;20036;-69
2021/03/27 09:00:53;;;;;;;5.28;1.00;;;;;;;;;;5079533;28;20083;-69
2021/03/27 09:03:47;;;;;;;3.60;1.58;;;;;;;;;;5081135;28;20052;-68
2021/03/27 09:06:29;;;;;;;1.48;1.20;;;;;;;;;;5086425;28;20411;-70
2021/03/27 09:09:07;;;;;;;3.47;0.93;;;;;;;;;;5084396;28;20055;-69
2021/03/27 09:11:41;;;;;;;2.78;1.20;;;;;;;;;;5085808;28;20408;-68
2021/03/27 09:14:17;;;;;;;5.72;1.50;;;;;;;;;;5079868;28;20105;-68
2021/03/27 09:17:11;;;;;;;9.40;1.77;;;;;;;;;;5077723;28;20403;-68
2021/03/27 09:20:06;;;;;;;2.65;1.30;;;;;;;;;;5049955;28;20133;-69
2021/03/27 09:22:43;;;;;;;4.38;0.93;;;;;;;;;;5083761;28;20051;-69
2021/03/27 09:25:17;;;;;;;4.20;1.60;;;;;;;;;;5094300;28;20060;-69
2021/03/27 09:28:07;;;;;;;2.15;1.30;;;;;;;;;;5084006;28;20064;-68
2021/03/27 09:30:41;;;;;;;1.75;1.13;;;;;;;;;;5078084;28;20550;-67
2021/03/27 09:33:12;;;;;;;5.05;1.38;;;;;;;;;;5078870;28;20059;-70
2021/03/27 09:36:09;;;;;;;3.17;1.30;;;;;;;;;;5085081;28;20062;-69
2021/03/27 09:38:49;;;;;;;2.10;1.20;;;;;;;;;;4981329;28;20062;-68
2021/03/27 09:41:34;;;;;;;1.10;1.00;;;;;;;;;;5070151;28;20044;-68
2021/03/27 09:44:29;;;;;;;1.73;1.10;;;;;;;;;;5084087;28;20075;-68
2021/03/27 09:47:03;;;;;;;1.80;1.10;;;;;;;;;;5038803;28;20459;-68
2021/03/27 09:49:34;;;;;;;3.10;1.48;;;;;;;;;;5081104;28;20102;-67
2021/03/27 09:52:29;;;;;;;2.30;1.40;;;;;;;;;;5079746;28;20522;-68
2021/03/27 09:55:16;;;;;;;4.63;1.67;;;;;;;;;;5040716;28;20082;-67
2021/03/27 09:57:47;;;;;;;3.72;1.60;;;;;;;;;;5084555;28;20139;-68
2021/03/27 10:00:16;;;;;;;1.27;1.02;;;;;;;;;;5077248;28;20189;-67
2021/03/27 10:02:47;;;;;;;3.47;1.00;;;;;;;;;;5082933;28;20553;-68
2021/03/27 10:05:37;;;;;;;1.70;1.10;;;;;;;;;;723778;28;10002085;-68
2021/03/27 10:08:22;;;;;;;5.13;1.15;;;;;;;;;;5073940;28;20298;-68
2021/03/27 10:11:01;;;;;;;4.47;1.05;;;;;;;;;;5079960;28;20490;-67
2021/03/27 10:13:42;;;;;;;2.63;0.77;;;;;;;;;;5079580;28;20048;-68
2021/03/27 10:16:11;;;;;;;1.17;0.85;;;;;;;;;;5082694;28;20087;-68
2021/03/27 10:18:43;;;;;;;2.90;0.85;;;;;;;;;;5081187;28;20044;-68
2021/03/27 10:21:22;;;;;;;3.13;0.80;;;;;;;;;;5084513;28;20067;-68
2021/03/27 10:24:02;;;;;;;2.13;0.82;;;;;;;;;;5078891;28;20044;-67
2021/03/27 10:26:34;;;;;;;2.35;1.00;;;;;;;;;;5075978;28;20538;-68
2021/03/27 10:29:33;;;;;;;6.05;1.10;;;;;;;;;;5078050;28;20082;-68
2021/03/27 10:32:02;;;;;;;1.42;0.50;;;;;;;;;;5082447;28;20119;-67
2021/03/27 10:34:34;;;;;;;3.22;0.57;;;;;;;;;;5076044;28;20364;-68
2021/03/27 10:37:05;;;;;;;2.58;0.57;;;;;;;;;;5075449;28;20556;-69
2021/03/27 10:39:49;;;;;;;2.60;0.60;;;;;;;;;;5055089;28;20113;-69
2021/03/27 10:42:35;;;;;;;1.95;0.45;;;;;;;;;;5093603;28;20108;-69
2021/03/27 10:45:17;;;;;;;2.95;1.15;;;;;;;;;;5084177;28;20051;-69
2021/03/27 10:47:48;;;;;;;1.52;0.50;;;;;;;;;;5082201;28;20130;-69
2021/03/27 10:50:19;;;;;;;1.58;0.70;;;;;;;;;;5075138;28;20139;-70
2021/03/27 10:53:11;;;;;;;2.08;0.90;;;;;;;;;;5079079;28;20044;-68
2021/03/27 10:55:54;;;;;;;4.93;1.13;;;;;;;;;;5074688;28;20052;-67
2021/03/27 10:58:51;;;;;;;6.18;2.35;;;;;;;;;;5081256;28;20048;-68
2021/03/27 11:01:37;;;;;;;1.48;0.57;;;;;;;;;;5000732;28;20056;-68
2021/03/27 11:04:21;;;;;;;1.20;0.52;;;;;;;;;;5074486;28;20536;-69
2021/03/27 11:07:08;;;;;;;1.58;0.70;;;;;;;;;;5040078;28;20051;-68
2021/03/27 11:10:01;;;;;;;0.98;0.68;;;;;;;;;;5079735;28;20051;-68
2021/03/27 11:12:47;;;;;;;2.08;0.80;;;;;;;;;;5081173;28;20565;-67
2021/03/27 11:15:19;;;;;;;1.80;0.80;;;;;;;;;;5083474;28;20512;-68
2021/03/27 11:17:58;;;;;;;3.20;0.80;;;;;;;;;;5080028;28;20052;-69
2021/03/27 11:20:41;;;;;;;1.25;0.70;;;;;;;;;;5082942;28;20407;-69
2021/03/27 11:23:29;;;;;;;5.57;1.13;;;;;;;;;;5083007;28;20081;-68
2021/03/27 11:26:15;;;;;;;3.72;1.48;;;;;;;;;;5073769;28;20139;-69
2021/03/27 11:28:47;;;;;;;2.17;1.15;;;;;;;;;;5081245;28;20044;-69
2021/03/27 11:31:20;;;;;;;6.53;1.60;;;;;;;;;;5081268;28;20127;-69
2021/03/27 11:33:55;;;;;;;3.38;1.27;;;;;;;;;;5082561;28;20048;-69
2021/03/27 11:36:24;;;;;;;3.20;1.10;;;;;;;;;;5083178;28;20138;-68
2021/03/27 11:38:56;;;;;;;3.15;1.00;;;;;;;;;;5079044;28;20075;-68
2021/03/27 11:41:25;;;;;;;2.20;0.73;;;;;;;;;;5081153;28;20700;-68
2021/03/27 11:44:07;;;;;;;1.75;0.90;;;;;;;;;;5083248;28;20131;-68
2021/03/27 11:46:39;;;;;;;2.90;1.23;;;;;;;;;;5077202;28;20491;-68
2021/03/27 11:49:08;;;;;;;2.75;0.90;;;;;;;;;;5083181;28;20064;-68
2021/03/27 11:51:39;;;;;;;2.10;0.93;;;;;;;;;;5082994;28;20131;-68
2021/03/27 11:54:11;;;;;;;3.40;1.60;;;;;;;;;;5081226;28;20050;-68
2021/03/27 11:56:43;;;;;;;5.18;0.85;;;;;;;;;;5083868;28;20487;-68
2021/03/27 12:02:13;;;;;;;1.92;0.80;;;;;;;;;;5085739;28;20117;-68
2021/03/27 12:04:54;;;;;;;1.05;0.80;;;;;;;;;;5083153;28;20044;-69
2021/03/27 12:07:24;;;;;;;2.10;0.90;;;;;;;;;;5083320;28;20149;-69
2021/03/27 12:09:53;;;;;;;1.30;0.93;;;;;;;;;;5074610;28;20093;-69
2021/03/27 12:12:31;;;;;;;1.05;0.73;;;;;;;;;;5084257;28;20056;-69
2021/03/27 12:15:06;;;;;;;2.97;1.10;;;;;;;;;;5080004;28;20088;-67
2021/03/27 12:17:40;;;;;;;4.22;0.80;;;;;;;;;;5070378;28;20040;-68
2021/03/27 12:20:21;;;;;;;2.63;0.90;;;;;;;;;;5084293;28;20467;-68
2021/03/27 12:22:52;;;;;;;3.10;0.90;;;;;;;;;;5080115;28;20487;-67
2021/03/27 12:25:29;;;;;;;2.35;1.02;;;;;;;;;;5085259;28;20048;-68
2021/03/27 12:28:01;;;;;;;5.10;1.10;;;;;;;;;;5084717;28;20419;-69
2021/03/27 12:30:34;;;;;;;2.10;0.90;;;;;;;;;;5082586;28;20232;-67
2021/03/27 12:33:06;;;;;;;3.53;0.75;;;;;;;;;;5079304;28;20055;-68
2021/03/27 12:35:37;;;;;;;5.57;0.85;;;;;;;;;;5085076;28;20063;-67
2021/03/27 12:38:25;;;;;;;7.00;1.20;;;;;;;;;;5082356;28;20059;-66
2021/03/27 12:40:57;;;;;;;4.05;0.90;;;;;;;;;;5075731;28;20420;-69
2021/03/27 12:43:26;;;;;;;3.80;1.42;;;;;;;;;;5080552;28;20116;-68
2021/03/27 12:46:01;;;;;;;5.65;1.02;;;;;;;;;;5081735;28;20071;-68
2021/03/27 12:48:37;;;;;;;1.88;0.95;;;;;;;;;;5080867;28;20075;-67
2021/03/27 12:51:15;;;;;;;3.90;1.10;;;;;;;;;;5084485;28;20048;-67
2021/03/27 12:54:12;;;;;;;6.78;1.17;;;;;;;;;;5080325;28;20123;-69
2021/03/27 12:57:09;;;;;;;2.08;0.80;;;;;;;;;;5021381;28;20037;-67
2021/03/27 12:59:45;;;;;;;4.88;0.90;;;;;;;;;;5046911;28;20052;-68
2021/03/27 13:02:24;;;;;;;1.88;0.93;;;;;;;;;;5079392;28;20158;-67
2021/03/27 13:05:04;;;;;;;4.28;0.90;;;;;;;;;;5085616;28;20120;-68
2021/03/27 13:07:35;;;;;;;1.77;0.82;;;;;;;;;;5080929;28;20440;-68
2021/03/27 13:10:16;;;;;;;1.30;0.80;;;;;;;;;;5083685;28;20079;-68
2021/03/27 13:12:50;;;;;;;4.05;1.00;;;;;;;;;;5083277;28;20078;-67
2021/03/27 13:15:25;;;;;;;2.35;1.00;;;;;;;;;;5084523;28;20101;-67
2021/03/27 13:18:11;;;;;;;5.38;1.20;;;;;;;;;;5084885;28;20123;-68
2021/03/27 13:20:41;;;;;;;4.63;1.48;;;;;;;;;;5082433;28;20442;-68
2021/03/27 13:23:14;;;;;;;2.22;0.80;;;;;;;;;;5080697;28;20104;-68
2021/03/27 13:25:50;;;;;;;2.17;1.25;;;;;;;;;;5078262;28;20167;-68
2021/03/27 13:28:17;;;;;;;;;;;;;;;;;;5081108;28;20156;-68
2021/03/27 13:30:48;;;;;;;2.63;0.95;;;;;;;;;;5071854;28;19924;-68
2021/03/27 13:33:27;;;;;;;2.95;1.08;;;;;;;;;;5081081;28;20132;-69
2021/03/27 13:36:04;;;;;;;2.05;1.10;;;;;;;;;;5074029;28;20048;-70
2021/03/27 13:38:34;;;;;;;2.92;0.90;;;;;;;;;;5071126;28;20160;-69
2021/03/27 13:41:07;;;;;;;2.78;1.40;;;;;;;;;;5084183;28;20340;-69
2021/03/27 13:43:35;;;;;;;1.67;1.00;;;;;;;;;;5085452;28;20335;-68
2021/03/27 13:46:11;;;;;;;5.15;1.15;;;;;;;;;;5080350;28;20134;-69
2021/03/27 13:48:47;;;;;;;2.95;1.13;;;;;;;;;;5081693;28;20832;-69
2021/03/27 13:51:19;;;;;;;3.70;1.13;;;;;;;;;;5072798;28;20249;-68
2021/03/27 13:54:01;;;;;;;4.78;1.10;;;;;;;;;;5077476;28;20113;-69
2021/03/27 13:56:31;;;;;;;3.70;1.05;;;;;;;;;;5082317;28;20052;-67
2021/03/27 13:59:04;;;;;;;2.58;1.42;;;;;;;;;;5081288;28;20392;-67
2021/03/27 14:01:35;;;;;;;2.47;1.20;;;;;;;;;;5066248;28;20056;-67
2021/03/27 14:04:10;;;;;;;4.50;1.17;;;;;;;;;;5067491;28;20060;-66
2021/03/27 14:06:41;;;;;;;4.53;1.30;;;;;;;;;;5084560;28;20075;-66
2021/03/27 14:09:23;;;;;;;2.28;1.10;;;;;;;;;;5082800;28;20137;-67
2021/03/27 14:11:56;;;;;;;3.78;1.20;;;;;;;;;;5081645;28;20161;-66
2021/03/27 14:14:26;;;;;;;4.13;1.33;;;;;;;;;;5071761;28;20040;-67
2021/03/27 14:17:02;;;;;;;4.00;1.20;;;;;;;;;;5076044;28;20131;-66
2021/03/27 14:20:00;;;;;;;4.22;1.13;;;;;;;;;;5081987;28;20051;-66
2021/03/27 14:22:39;;;;;;;3.90;1.50;;;;;;;;;;4994132;28;20077;-66
2021/03/27 14:25:18;;;;;;;1.77;0.90;;;;;;;;;;5074343;28;20087;-67
2021/03/27 14:28:06;;;;;;;3.83;1.10;;;;;;;;;;5079216;28;20047;-66
2021/03/27 14:30:46;;;;;;;3.50;0.90;;;;;;;;;;5081259;28;20114;-66
2021/03/27 14:33:20;;;;;;;2.90;1.00;;;;;;;;;;5079948;28;20552;-67
2021/03/27 14:35:54;;;;;;;4.72;1.05;;;;;;;;;;5064276;28;20052;-66
2021/03/27 14:38:27;;;;;;;3.75;1.17;;;;;;;;;;5064503;28;20143;-66
2021/03/27 14:41:00;;;;;;;4.88;1.25;;;;;;;;;;5082009;28;20131;-67
2021/03/27 14:43:31;;;;;;;3.13;1.10;;;;;;;;;;5078645;28;20044;-67
2021/03/27 14:46:16;;;;;;;3.45;0.90;;;;;;;;;;5065877;28;20532;-67
2021/03/27 14:48:52;;;;;;;2.15;1.00;;;;;;;;;;5069605;28;20076;-67
2021/03/27 14:51:28;;;;;;;6.43;1.20;;;;;;;;;;5077819;28;20440;-67
2021/03/27 14:53:58;;;;;;;3.95;1.00;;;;;;;;;;5081606;28;20043;-66
2021/03/27 14:56:29;;;;;;;3.13;1.00;;;;;;;;;;5062861;28;20056;-66
2021/03/27 14:58:59;;;;;;;2.42;0.90;;;;;;;;;;5072069;28;20293;-67
2021/03/27 15:01:35;;;;;;;1.00;0.75;;;;;;;;;;5072658;28;20579;-69
2021/03/27 15:04:10;;;;;;;4.63;0.80;;;;;;;;;;5093861;28;20056;-66
2021/03/27 15:06:40;;;;;;;3.92;1.08;;;;;;;;;;5083246;28;20052;-67
2021/03/27 15:09:10;;;;;;;2.08;1.08;;;;;;;;;;5076741;28;20048;-67
2021/03/27 15:12:02;;;;;;;1.95;1.55;;;;;;;;;;5076557;28;20079;-67
2021/03/27 15:14:37;;;;;;;4.47;1.05;;;;;;;;;;5049711;28;20048;-68
2021/03/27 15:17:10;;;;;;;2.70;0.93;;;;;;;;;;5076408;28;20345;-66
2021/03/27 15:19:53;;;;;;;4.72;0.80;;;;;;;;;;5063115;28;20057;-66
2021/03/27 15:22:26;;;;;;;1.80;0.90;;;;;;;;;;5065153;28;20048;-67
2021/03/27 15:27:45;;;;;;;3.95;1.00;;;;;;;;;;5067233;28;20531;-67
2021/03/27 15:30:14;;;;;;;2.03;0.93;;;;;;;;;;5071405;28;20052;-67
2021/03/27 15:32:46;;;;;;;3.08;0.85;;;;;;;;;;5082936;28;20109;-66
2021/03/27 15:35:29;;;;;;;1.25;0.85;;;;;;;;;;5066434;28;20559;-67
2021/03/27 15:38:03;;;;;;;4.15;0.90;;;;;;;;;;5073959;28;20109;-67
2021/03/27 15:40:34;;;;;;;1.73;0.80;;;;;;;;;;5087214;28;20044;-66
2021/03/27 15:43:05;;;;;;;4.65;1.20;;;;;;;;;;5083431;28;20040;-67